Wes Monica — V2GN6 — position and weather

sailwx.info

Track history (hours):
 
Tides and Currents Weather Stations Pressure Air Temp Water Temp Dewpoint Dewpoint Depression Visibility Wind Speed Wind Dir Waves Ship Positions

Wes Monica

Last reported at 2017-Nov-19 06:52 UTC. Time now 2017-Nov-19 10:33 UTC.
Position N 50°26' W 000°32'.

Length 108 m; draft 7.2 m.

Type: Cargo ship. MMSI: 304014000.

Date/timePositionNaut miles runAvg speedWind from/ knotsBaromVisibWave heightAir tempDewpointWater temp
2017-Nov-19 06:52N 50°26' W 000°32'4 8.0
2017-Nov-19 06:25N 50°27' W 000°26'3 8.3
2017-Nov-19 06:01N 50°28' W 000°21'5 9.4
2017-Nov-19 05:31N 50°29' W 000°14'5 9.9
2017-Nov-19 05:01N 50°30' W 000°06'510.2
2017-Nov-19 04:31N 50°32' E 000°01'510.5
2017-Nov-19 04:01N 50°34' E 000°09'510.4
2017-Nov-19 03:31N 50°35' E 000°17'710.3
2017-Nov-19 02:47N 50°37' E 000°28'310.0
2017-Nov-19 02:31N 50°38' E 000°32'5 9.7
2017-Nov-19 02:00N 50°41' E 000°39'5 9.6
2017-Nov-19 01:31N 50°43' E 000°45'5 9.1
2017-Nov-19 01:01N 50°46' E 000°51'4 8.5
2017-Nov-19 00:31N 50°48' E 000°56'4 8.0
2017-Nov-18 23:59N 50°51' E 001°02'4 7.7
2017-Nov-18 23:29N 50°53' E 001°07'4 7.6
2017-Nov-18 23:00N 50°56' E 001°11'4 7.6
2017-Nov-18 22:31N 50°58' E 001°15'4 7.8
2017-Nov-18 22:00N 51°01' E 001°20'4 8.9
2017-Nov-18 21:31N 51°03' E 001°26'510.7
2017-Nov-18 21:01N 51°07' E 001°32'611.7
2017-Nov-18 20:31N 51°11' E 001°39'611.6
2017-Nov-18 20:00N 51°15' E 001°46'611.5
2017-Nov-18 19:31N 51°19' E 001°52'611.2
2017-Nov-18 19:01N 51°24' E 001°57'4 7.6
2017-Nov-18 18:31N 51°24' E 002°03'4 8.5
2017-Nov-18 18:01N 51°23' E 002°09'4 8.5
2017-Nov-18 17:30N 51°21' E 002°16'4 8.3
2017-Nov-18 17:00N 51°21' E 002°22'11 8.0
2017-Nov-18 15:39N 51°22' E 002°39'1 7.5
2017-Nov-18 15:30N 51°22' E 002°41'3 6.2
2017-Nov-18 15:00N 51°21' E 002°46'3 6.6
2017-Nov-18 14:31N 51°23' E 002°51'3 6.9
2017-Nov-18 14:01N 51°23' E 002°56'3 6.8
2017-Nov-18 13:31N 51°24' E 003°02'4 7.1
2017-Nov-18 13:01N 51°24' E 003°07'3 6.7
2017-Nov-18 12:31N 51°25' E 003°13'3 6.4
2017-Nov-18 12:01N 51°25' E 003°18'3 5.6
2017-Nov-18 11:31N 51°25' E 003°22'3 6.0
2017-Nov-18 11:00N 51°25' E 003°27'3 6.7
2017-Nov-18 10:31N 51°26' E 003°32'3 5.7
2017-Nov-18 10:01N 51°26' E 003°37'3 6.5
2017-Nov-18 09:31N 51°24' E 003°41'4 8.1
2017-Nov-18 09:01N 51°22' E 003°47'3 5.0
2017-Nov-18 08:30N 51°20' E 003°49'0 0.2
2017-Nov-18 08:00N 51°20' E 003°49'2 4.6
2017-Nov-18 07:30N 51°17' E 003°50'4 7.1
2017-Nov-18 07:01N 51°14' E 003°49'3 6.7
2017-Nov-18 06:30N 51°11' E 003°48'0 0.2
2017-Nov-18 06:00N 51°11' E 003°48'0 0.0
2017-Nov-18 05:29N 51°11' E 003°48'0 0.0
2017-Nov-18 05:00N 51°11' E 003°48'0 0.0
2017-Nov-18 04:29N 51°11' E 003°48'0 0.0
2017-Nov-18 04:00N 51°11' E 003°48'0 0.0
2017-Nov-18 03:29N 51°11' E 003°48'0 0.0
2017-Nov-18 02:59N 51°11' E 003°48'0 0.0
2017-Nov-18 02:30N 51°11' E 003°48'0 0.0
2017-Nov-18 01:59N 51°11' E 003°48'0 0.0
2017-Nov-18 01:30N 51°11' E 003°48'0 0.0
2017-Nov-18 00:59N 51°11' E 003°48'0 0.0
2017-Nov-18 00:30N 51°11' E 003°48'0 0.0
2017-Nov-17 23:59N 51°11' E 003°48'0 0.0
2017-Nov-17 23:29N 51°11' E 003°48'0 0.0
2017-Nov-17 22:59N 51°11' E 003°48'0 0.0
2017-Nov-17 22:29N 51°11' E 003°48'0 0.0
2017-Nov-17 21:59N 51°11' E 003°48'0 0.0
2017-Nov-17 21:29N 51°11' E 003°48'0 0.0
2017-Nov-17 20:59N 51°11' E 003°48'0 0.0
2017-Nov-17 20:29N 51°11' E 003°48'0 0.0
2017-Nov-17 19:59N 51°11' E 003°48'0 0.0
2017-Nov-17 19:29N 51°11' E 003°48'0 0.0
2017-Nov-17 18:59N 51°11' E 003°48'0 0.0
2017-Nov-17 18:29N 51°11' E 003°48'0 0.0
2017-Nov-17 17:57N 51°11' E 003°48'0 0.0
2017-Nov-17 17:30N 51°11' E 003°48'0 0.0
2017-Nov-17 16:59N 51°11' E 003°48'0 0.0
2017-Nov-17 16:29N 51°11' E 003°48'0 0.0
2017-Nov-17 15:59N 51°11' E 003°48'0 0.0
2017-Nov-17 15:29N 51°11' E 003°48'0 0.0
2017-Nov-17 14:59N 51°11' E 003°48'0 0.0
2017-Nov-17 14:29N 51°11' E 003°48'0 0.0
2017-Nov-17 13:57N 51°11' E 003°48'0 0.0
2017-Nov-17 13:26N 51°11' E 003°48'0 0.1
2017-Nov-17 12:59N 51°11' E 003°48'0 0.0
2017-Nov-17 12:29N 51°11' E 003°48'0 0.0
2017-Nov-17 11:59N 51°11' E 003°48'0 0.0
2017-Nov-17 11:29N 51°11' E 003°48'0 0.0
2017-Nov-17 10:59N 51°11' E 003°48'0 0.0
2017-Nov-17 10:29N 51°11' E 003°48'0 0.0
2017-Nov-17 09:59N 51°11' E 003°48'0 0.0
2017-Nov-17 09:29N 51°11' E 003°48'0 0.0
2017-Nov-17 08:59N 51°11' E 003°48'0 0.0
2017-Nov-17 08:29N 51°11' E 003°48'0 0.0
2017-Nov-17 07:59N 51°11' E 003°48'0 0.0
2017-Nov-17 07:29N 51°11' E 003°48'0 0.0
2017-Nov-17 06:59N 51°11' E 003°48'0 0.0
2017-Nov-17 06:29N 51°11' E 003°48'0 0.0
2017-Nov-17 05:59N 51°11' E 003°48'0 0.0
2017-Nov-17 05:29N 51°11' E 003°48'0 0.0
2017-Nov-17 04:59N 51°11' E 003°48'0 0.0
2017-Nov-17 04:29N 51°11' E 003°48'0 0.0
2017-Nov-17 04:00N 51°11' E 003°48'0 0.0
2017-Nov-17 03:29N 51°11' E 003°48'0 0.0
2017-Nov-17 03:00N 51°11' E 003°48'0 0.0
2017-Nov-17 02:29N 51°11' E 003°48'0 0.0
2017-Nov-17 01:59N 51°11' E 003°48'0 0.0
2017-Nov-17 01:29N 51°11' E 003°48'0 0.0
2017-Nov-17 00:59N 51°11' E 003°48'0 0.0
2017-Nov-17 00:30N 51°11' E 003°48'0 0.0
2017-Nov-16 23:59N 51°11' E 003°48'0 0.0
2017-Nov-16 23:29N 51°11' E 003°48'0 0.0
2017-Nov-16 22:59N 51°11' E 003°48'0 0.0
2017-Nov-16 22:29N 51°11' E 003°48'0 0.0
2017-Nov-16 21:59N 51°11' E 003°48'0 0.0
2017-Nov-16 21:29N 51°11' E 003°48'0 0.0
2017-Nov-16 20:59N 51°11' E 003°48'0 0.0
2017-Nov-16 20:29N 51°11' E 003°48'0 0.0
2017-Nov-16 19:59N 51°11' E 003°48'0 0.0
2017-Nov-16 19:29N 51°11' E 003°48'0 0.0
2017-Nov-16 18:59N 51°11' E 003°48'0 0.0
2017-Nov-16 18:29N 51°11' E 003°48'0 0.0
2017-Nov-16 18:00N 51°11' E 003°48'0 0.0
2017-Nov-16 17:29N 51°11' E 003°48'0 0.0
2017-Nov-16 16:59N 51°11' E 003°48'0 0.0
2017-Nov-16 16:29N 51°11' E 003°48'0 0.0
2017-Nov-16 15:59N 51°11' E 003°48'0 0.0
2017-Nov-16 15:30N 51°11' E 003°48'0 0.0
2017-Nov-16 14:59N 51°11' E 003°48'0 0.0
2017-Nov-16 14:29N 51°11' E 003°48'0 0.0
2017-Nov-16 13:59N 51°11' E 003°48'0 0.0
2017-Nov-16 13:30N 51°11' E 003°48'0 0.0
2017-Nov-16 12:59N 51°11' E 003°48'0 0.0
2017-Nov-16 12:30N 51°11' E 003°48'0 0.4
2017-Nov-16 12:00N 51°10' E 003°48'1 2.2
2017-Nov-16 11:29N 51°09' E 003°47'0 0.0
2017-Nov-16 10:59N 51°09' E 003°47'0 0.0
2017-Nov-16 10:29N 51°09' E 003°47'0 0.0
2017-Nov-16 09:59N 51°09' E 003°47'0 0.0
2017-Nov-16 09:29N 51°09' E 003°47'0 0.0
2017-Nov-16 08:59N 51°09' E 003°47'0 0.0
2017-Nov-16 08:29N 51°09' E 003°47'0 0.0
2017-Nov-16 07:59N 51°09' E 003°47'0 0.0
2017-Nov-16 07:29N 51°09' E 003°47'0 0.0
2017-Nov-16 06:59N 51°09' E 003°47'0 0.0
2017-Nov-16 06:29N 51°09' E 003°47'0 0.0
2017-Nov-16 05:59N 51°09' E 003°47'0 0.0
2017-Nov-16 05:29N 51°09' E 003°47'0 0.0
2017-Nov-16 04:59N 51°09' E 003°47'0 0.0
2017-Nov-16 04:29N 51°09' E 003°47'0 0.0
2017-Nov-16 03:59N 51°09' E 003°47'0 0.0
2017-Nov-16 03:29N 51°09' E 003°47'0 0.0
2017-Nov-16 02:59N 51°09' E 003°47'0 0.0
2017-Nov-16 02:29N 51°09' E 003°47'0 0.0
2017-Nov-16 01:59N 51°09' E 003°47'0 0.0
2017-Nov-16 01:29N 51°09' E 003°47'0 0.0
2017-Nov-16 00:59N 51°09' E 003°47'0 0.0
2017-Nov-16 00:29N 51°09' E 003°47'0 0.0
2017-Nov-15 23:59N 51°09' E 003°47'0 0.0
2017-Nov-15 23:29N 51°09' E 003°47'0 0.0
2017-Nov-15 22:59N 51°09' E 003°47'0 0.0
2017-Nov-15 22:29N 51°09' E 003°47'0 0.0
2017-Nov-15 21:59N 51°09' E 003°47'0 0.0
2017-Nov-15 21:29N 51°09' E 003°47'0 0.0
2017-Nov-15 20:59N 51°09' E 003°47'0 0.0
2017-Nov-15 20:29N 51°09' E 003°47'0 0.0
2017-Nov-15 19:59N 51°09' E 003°47'0 0.0
2017-Nov-15 19:29N 51°09' E 003°47'0 0.0
2017-Nov-15 18:59N 51°09' E 003°47'0 0.0
2017-Nov-15 18:29N 51°09' E 003°47'0 0.0
2017-Nov-15 17:59N 51°09' E 003°47'0 0.0
2017-Nov-15 17:29N 51°09' E 003°47'0 0.0
2017-Nov-15 16:59N 51°09' E 003°47'0 0.0
2017-Nov-15 16:29N 51°09' E 003°47'0 0.0
2017-Nov-15 15:59N 51°09' E 003°47'0 0.0
2017-Nov-15 15:29N 51°09' E 003°47'0 0.0
2017-Nov-15 14:59N 51°09' E 003°47'0 0.0
2017-Nov-15 14:29N 51°09' E 003°47'0 0.0
2017-Nov-15 13:59N 51°09' E 003°47'0 0.0
2017-Nov-15 13:29N 51°09' E 003°47'0 0.0
2017-Nov-15 12:59N 51°09' E 003°47'0 0.0
2017-Nov-15 12:29N 51°09' E 003°47'0 0.0
2017-Nov-15 11:59N 51°09' E 003°47'0 0.0
2017-Nov-15 11:29N 51°09' E 003°47'0 0.0
2017-Nov-15 10:59N 51°09' E 003°47'0 0.0
2017-Nov-15 10:29N 51°09' E 003°47'0 0.0
2017-Nov-15 09:59N 51°09' E 003°47'0 0.0
2017-Nov-15 09:29N 51°09' E 003°47'0 0.0
2017-Nov-15 08:59N 51°09' E 003°47'0 0.0
2017-Nov-15 08:29N 51°09' E 003°47'0 0.0
2017-Nov-15 07:59N 51°09' E 003°47'0 0.0
2017-Nov-15 07:29N 51°09' E 003°47'0 0.0
2017-Nov-15 06:59N 51°09' E 003°47'0 0.0
2017-Nov-15 06:29N 51°09' E 003°47'0 0.0
2017-Nov-15 05:59N 51°09' E 003°47'0 0.0
2017-Nov-15 05:29N 51°09' E 003°47'0 0.0
2017-Nov-15 04:59N 51°09' E 003°47'0 0.0
2017-Nov-15 04:29N 51°09' E 003°47'0 0.0
2017-Nov-15 03:56N 51°09' E 003°47'0 0.0
2017-Nov-15 03:29N 51°09' E 003°47'0 0.0
2017-Nov-15 02:59N 51°09' E 003°47'0 0.0
2017-Nov-15 02:29N 51°09' E 003°47'0 0.0
2017-Nov-15 01:59N 51°09' E 003°47'0 0.0
2017-Nov-15 01:29N 51°09' E 003°47'0 0.0
2017-Nov-15 00:59N 51°09' E 003°47'0 0.0
2017-Nov-15 00:29N 51°09' E 003°47'0 0.0
2017-Nov-14 23:59N 51°09' E 003°47'0 0.0
2017-Nov-14 23:29N 51°09' E 003°47'0 0.0
2017-Nov-14 22:59N 51°09' E 003°47'0 0.0
2017-Nov-14 22:29N 51°09' E 003°47'0 0.0
2017-Nov-14 21:59N 51°09' E 003°47'0 0.0
2017-Nov-14 21:29N 51°09' E 003°47'0 0.0
2017-Nov-14 20:59N 51°09' E 003°47'0 0.0
2017-Nov-14 20:29N 51°09' E 003°47'0 0.0
2017-Nov-14 19:59N 51°09' E 003°47'0 0.0
2017-Nov-14 19:29N 51°09' E 003°47'0 0.0
2017-Nov-14 18:59N 51°09' E 003°47'0 0.0
2017-Nov-14 18:29N 51°09' E 003°47'0 0.0
2017-Nov-14 17:59N 51°09' E 003°47'0 0.0
2017-Nov-14 17:29N 51°09' E 003°47'0 0.0
2017-Nov-14 16:59N 51°09' E 003°47'0 0.0
2017-Nov-14 16:29N 51°09' E 003°47'0 0.0
2017-Nov-14 15:59N 51°09' E 003°47'0 0.0
2017-Nov-14 15:29N 51°09' E 003°47'0 0.0
2017-Nov-14 14:59N 51°09' E 003°47'0 0.0
2017-Nov-14 14:29N 51°09' E 003°47'0 0.0
2017-Nov-14 13:59N 51°09' E 003°47'0 0.0
2017-Nov-14 13:29N 51°09' E 003°47'0 0.0
2017-Nov-14 12:56N 51°09' E 003°47'0 0.0
2017-Nov-14 12:29N 51°09' E 003°47'0 0.0
2017-Nov-14 11:59N 51°09' E 003°47'0 0.0
2017-Nov-14 11:29N 51°09' E 003°47'0 0.0
2017-Nov-14 10:59N 51°09' E 003°47'0 0.0
2017-Nov-14 10:29N 51°09' E 003°47'0 0.0
2017-Nov-14 09:59N 51°09' E 003°47'0 0.0
2017-Nov-14 09:29N 51°09' E 003°47'0 0.0
2017-Nov-14 08:59N 51°09' E 003°47'0 0.0
2017-Nov-14 08:29N 51°09' E 003°47'0 0.0
2017-Nov-14 07:59N 51°09' E 003°47'0 0.0
2017-Nov-14 07:26N 51°09' E 003°47'0 0.0
2017-Nov-14 06:59N 51°09' E 003°47'0 0.0
2017-Nov-14 06:29N 51°09' E 003°47'0 0.0
2017-Nov-14 05:59N 51°09' E 003°47'0 0.0
2017-Nov-14 05:29N 51°09' E 003°47'0 0.0
2017-Nov-14 04:59N 51°09' E 003°47'0 0.0
2017-Nov-14 04:29N 51°09' E 003°47'0 0.0
2017-Nov-14 03:59N 51°09' E 003°47'0 0.0
2017-Nov-14 03:29N 51°09' E 003°47'0 0.0
2017-Nov-14 02:59N 51°09' E 003°47'0 0.0
2017-Nov-14 02:29N 51°09' E 003°47'0 0.0
2017-Nov-14 01:59N 51°09' E 003°47'0 0.0
2017-Nov-14 01:29N 51°09' E 003°47'0 0.0
2017-Nov-14 00:59N 51°09' E 003°47'0 0.0
2017-Nov-14 00:29N 51°09' E 003°47'0 0.0
2017-Nov-13 23:59N 51°09' E 003°47'0 0.0
2017-Nov-13 23:29N 51°09' E 003°47'0 0.0
2017-Nov-13 22:59N 51°09' E 003°47'0 0.0
2017-Nov-13 22:29N 51°09' E 003°47'0 0.0
2017-Nov-13 21:59N 51°09' E 003°47'0 0.0
2017-Nov-13 01:59N 51°09' E 003°47'0 0.0
2017-Nov-13 01:29N 51°09' E 003°47'0 0.0
2017-Nov-13 00:59N 51°09' E 003°47'0 0.0
2017-Nov-13 00:29N 51°09' E 003°47'0 0.0
2017-Nov-12 23:59N 51°09' E 003°47'0 0.0
2017-Nov-12 23:29N 51°09' E 003°47'0 0.0
2017-Nov-12 22:59N 51°09' E 003°47'0 0.0
2017-Nov-12 22:29N 51°09' E 003°47'0 0.0
2017-Nov-12 21:59N 51°09' E 003°47'0 0.0
2017-Nov-12 21:29N 51°09' E 003°47'0 0.0
2017-Nov-12 20:59N 51°09' E 003°47'0 0.0
2017-Nov-12 20:29N 51°09' E 003°47'0 0.0
2017-Nov-12 19:59N 51°09' E 003°47'0 0.0
2017-Nov-12 19:29N 51°09' E 003°47'0 0.0
2017-Nov-12 18:59N 51°09' E 003°47'0 0.0
2017-Nov-12 18:29N 51°09' E 003°47'0 0.0
2017-Nov-12 17:59N 51°09' E 003°47'0 0.0
2017-Nov-12 17:29N 51°09' E 003°47'0 0.0
2017-Nov-12 16:59N 51°09' E 003°47'0 0.0
2017-Nov-12 16:29N 51°09' E 003°47'0 0.0
2017-Nov-12 15:59N 51°09' E 003°47'0 0.0
2017-Nov-12 15:29N 51°09' E 003°47'0 0.0
2017-Nov-12 14:59N 51°09' E 003°47'0 0.0
2017-Nov-12 14:31N 51°09' E 003°47'0 0.0
2017-Nov-12 14:01N 51°09' E 003°47'1 2.4
2017-Nov-12 13:30N 51°10' E 003°48'3 6.7
2017-Nov-12 13:00N 51°14' E 003°48'3 6.3
2017-Nov-12 12:30N 51°17' E 003°50'3 6.4
2017-Nov-12 12:00N 51°20' E 003°49'0 0.0
2017-Nov-12 11:30N 51°20' E 003°49'2 3.5
2017-Nov-12 11:00N 51°21' E 003°47'4 8.7
2017-Nov-12 10:30N 51°24' E 003°42'4 8.6
2017-Nov-12 10:00N 51°26' E 003°36'4 7.5
2017-Nov-12 09:30N 51°28' E 003°31'4 8.4
2017-Nov-12 09:00N 51°31' E 003°26'5 9.1
2017-Nov-12 08:30N 51°35' E 003°23'510.1
2017-Nov-12 08:00N 51°40' E 003°19'510.0
2017-Nov-12 07:28N 51°44' E 003°14'3 6.5
2017-Nov-12 07:00N 51°47' E 003°16'1 2.7
2017-Nov-12 06:27N 51°48' E 003°17'1 3.1
2017-Nov-12 05:59N 51°50' E 003°17'1 2.7
2017-Nov-12 05:30N 51°51' E 003°18'27 6.6
2017-Nov-12 01:26N 52°16' E 003°33'3 7.9
2017-Nov-12 01:00N 52°18' E 003°38'4 8.1
2017-Nov-12 00:31N 52°21' E 003°43'4 7.7
2017-Nov-11 23:59N 52°24' E 003°47'4 7.8
2017-Nov-11 23:30N 52°27' E 003°50'4 8.2
2017-Nov-11 23:00N 52°31' E 003°52'4 8.0
2017-Nov-11 22:30N 52°31' E 003°58'4 7.2
2017-Nov-11 22:00N 52°32' E 004°04'4 7.3
2017-Nov-11 21:30N 52°31' E 004°10'3 6.9
2017-Nov-11 21:00N 52°31' E 004°16'3 6.8
2017-Nov-11 20:31N 52°30' E 004°21'3 6.5
2017-Nov-11 20:01N 52°29' E 004°26'3 6.8
2017-Nov-11 19:30N 52°28' E 004°32'3 5.3
2017-Nov-11 19:00N 52°28' E 004°36'1 1.4
2017-Nov-11 18:31N 52°28' E 004°37'4 7.6
2017-Nov-11 18:01N 52°26' E 004°43'5 9.8
2017-Nov-11 17:31N 52°25' E 004°51'1 2.2
2017-Nov-11 17:00N 52°24' E 004°52'0 0.0
2017-Nov-11 16:30N 52°24' E 004°52'0 0.0
2017-Nov-11 16:00N 52°24' E 004°52'0 0.0
2017-Nov-11 15:30N 52°24' E 004°52'0 0.0
2017-Nov-11 15:00N 52°24' E 004°52'0 0.0
2017-Nov-11 14:30N 52°24' E 004°52'0 0.0
2017-Nov-11 14:00N 52°24' E 004°52'0 0.0
2017-Nov-11 13:30N 52°24' E 004°52'0 0.0
2017-Nov-11 13:00N 52°24' E 004°52'0 0.0
2017-Nov-11 12:30N 52°24' E 004°52'0 0.0
2017-Nov-11 12:00N 52°24' E 004°52'0 0.0
2017-Nov-11 11:30N 52°24' E 004°52'0 0.0
2017-Nov-11 11:00N 52°24' E 004°52'0 0.0
2017-Nov-11 10:30N 52°24' E 004°52'0 0.0
2017-Nov-11 10:00N 52°24' E 004°52'0 0.0
2017-Nov-11 09:30N 52°24' E 004°52'0 0.0
2017-Nov-11 09:00N 52°24' E 004°52'0 0.0
2017-Nov-11 08:30N 52°24' E 004°52'0 0.0
2017-Nov-11 08:00N 52°24' E 004°52'0 0.0
2017-Nov-11 07:30N 52°24' E 004°52'0 0.0
2017-Nov-11 07:00N 52°24' E 004°52'0 0.0
2017-Nov-11 06:30N 52°24' E 004°52'0 0.0
2017-Nov-11 06:00N 52°24' E 004°52'0 0.0
2017-Nov-11 05:30N 52°24' E 004°52'0 0.0
2017-Nov-11 05:00N 52°24' E 004°52'0 0.0
2017-Nov-11 04:30N 52°24' E 004°52'0 0.0
2017-Nov-11 04:00N 52°24' E 004°52'0 0.0
2017-Nov-11 03:30N 52°24' E 004°52'0 0.0
2017-Nov-11 03:00N 52°24' E 004°52'0 0.0
2017-Nov-11 02:27N 52°24' E 004°52'0 0.0
2017-Nov-11 02:00N 52°24' E 004°52'0 0.0
2017-Nov-11 01:30N 52°24' E 004°52'0 0.0
2017-Nov-11 01:00N 52°24' E 004°52'0 0.0
2017-Nov-11 00:30N 52°24' E 004°52'0 0.0
2017-Nov-11 00:00N 52°24' E 004°52'0 0.0
2017-Nov-10 23:30N 52°24' E 004°52'0 0.0
2017-Nov-10 23:00N 52°24' E 004°52'0 0.0
2017-Nov-10 22:30N 52°24' E 004°52'0 0.0
2017-Nov-10 21:54N 52°24' E 004°52'0 0.0
2017-Nov-10 21:30N 52°24' E 004°52'0 0.0
2017-Nov-10 21:00N 52°24' E 004°52'0 0.0
2017-Nov-10 20:30N 52°24' E 004°52'0 0.0
2017-Nov-10 20:00N 52°24' E 004°52'0 0.0
2017-Nov-10 19:30N 52°24' E 004°52'0 0.0
2017-Nov-10 19:00N 52°24' E 004°52'0 0.0
2017-Nov-10 18:30N 52°24' E 004°52'0 0.0
2017-Nov-10 18:00N 52°24' E 004°52'0 0.0
2017-Nov-10 17:30N 52°24' E 004°52'0 0.0
2017-Nov-10 17:00N 52°24' E 004°52'0 0.0
2017-Nov-10 16:30N 52°24' E 004°52'0 0.0
2017-Nov-10 16:00N 52°24' E 004°52'0 0.0
2017-Nov-10 15:30N 52°24' E 004°52'0 0.0
2017-Nov-10 15:00N 52°24' E 004°52'0 0.0
2017-Nov-10 14:30N 52°24' E 004°52'0 0.0
2017-Nov-10 14:00N 52°24' E 004°52'0 0.0
2017-Nov-10 13:30N 52°24' E 004°52'0 0.0
2017-Nov-10 12:57N 52°24' E 004°52'0 0.0
2017-Nov-10 12:27N 52°24' E 004°52'0 0.0
2017-Nov-10 12:00N 52°24' E 004°52'0 0.0
2017-Nov-10 11:30N 52°24' E 004°52'0 0.3
2017-Nov-10 11:01N 52°25' E 004°52'2 4.3
2017-Nov-10 10:31N 52°25' E 004°49'4 8.2
2017-Nov-10 10:00N 52°26' E 004°42'4 7.2
2017-Nov-10 09:30N 52°28' E 004°37'0 0.7
2017-Nov-10 09:01N 52°28' E 004°36'2 4.7
2017-Nov-10 08:30N 52°28' E 004°33'4 8.1
2017-Nov-10 08:00N 52°29' E 004°26'2 3.2
2017-Nov-10 07:30N 52°29' E 004°23'1 1.7
2017-Nov-10 07:00N 52°28' E 004°22'3 5.1
2017-Nov-10 06:30N 52°28' E 004°18'3 6.1
2017-Nov-10 06:00N 52°29' E 004°13'3 6.0
2017-Nov-10 05:30N 52°29' E 004°08'3 6.1
2017-Nov-10 04:58N 52°28' E 004°03'3 6.1
2017-Nov-10 04:30N 52°27' E 003°58'3 6.3
2017-Nov-10 04:00N 52°27' E 003°53'61 7.5
2017-Nov-09 19:54N 51°47' E 002°38'4 9.5
2017-Nov-09 19:25N 51°44' E 002°33'4 9.7
2017-Nov-09 18:59N 51°40' E 002°29'610.0
2017-Nov-09 18:25N 51°36' E 002°23'410.4
2017-Nov-09 18:00N 51°33' E 002°18'510.4
2017-Nov-09 17:30N 51°29' E 002°13'510.3
2017-Nov-09 17:00N 51°25' E 002°08'510.0
2017-Nov-09 16:30N 51°20' E 002°07'510.2
2017-Nov-09 16:00N 51°15' E 002°05'510.7
2017-Nov-09 15:30N 51°12' E 001°58'510.9
2017-Nov-09 15:00N 51°09' E 001°51'611.2
2017-Nov-09 14:30N 51°04' E 001°45'611.2
2017-Nov-09 14:00N 51°00' E 001°39'510.7
2017-Nov-09 13:30N 50°56' E 001°33'  
Track history (hours):
 
Tides and Currents Weather Stations Pressure Air Temp Water Temp Dewpoint Dewpoint Depression Visibility Wind Speed Wind Dir Waves Ship Positions

Wes Monica

Last reported at 2017-Nov-19 06:52 UTC. Time now 2017-Nov-19 10:33 UTC.
Position N 50°26' W 000°32'.

Length 108 m; draft 7.2 m.

Type: Cargo ship. MMSI: 304014000.

Date/timePositionNaut miles runAvg speedWind from/ knotsBaromVisibWave heightAir tempDewpointWater temp
2017-Nov-19 06:52N 50°26' W 000°32'4 8.0
2017-Nov-19 06:25N 50°27' W 000°26'3 8.3
2017-Nov-19 06:01N 50°28' W 000°21'5 9.4
2017-Nov-19 05:31N 50°29' W 000°14'5 9.9
2017-Nov-19 05:01N 50°30' W 000°06'510.2
2017-Nov-19 04:31N 50°32' E 000°01'510.5
2017-Nov-19 04:01N 50°34' E 000°09'510.4
2017-Nov-19 03:31N 50°35' E 000°17'710.3
2017-Nov-19 02:47N 50°37' E 000°28'310.0
2017-Nov-19 02:31N 50°38' E 000°32'5 9.7
2017-Nov-19 02:00N 50°41' E 000°39'5 9.6
2017-Nov-19 01:31N 50°43' E 000°45'5 9.1
2017-Nov-19 01:01N 50°46' E 000°51'4 8.5
2017-Nov-19 00:31N 50°48' E 000°56'4 8.0
2017-Nov-18 23:59N 50°51' E 001°02'4 7.7
2017-Nov-18 23:29N 50°53' E 001°07'4 7.6
2017-Nov-18 23:00N 50°56' E 001°11'4 7.6
2017-Nov-18 22:31N 50°58' E 001°15'4 7.8
2017-Nov-18 22:00N 51°01' E 001°20'4 8.9
2017-Nov-18 21:31N 51°03' E 001°26'510.7
2017-Nov-18 21:01N 51°07' E 001°32'611.7
2017-Nov-18 20:31N 51°11' E 001°39'611.6
2017-Nov-18 20:00N 51°15' E 001°46'611.5
2017-Nov-18 19:31N 51°19' E 001°52'611.2
2017-Nov-18 19:01N 51°24' E 001°57'4 7.6
2017-Nov-18 18:31N 51°24' E 002°03'4 8.5
2017-Nov-18 18:01N 51°23' E 002°09'4 8.5
2017-Nov-18 17:30N 51°21' E 002°16'4 8.3
2017-Nov-18 17:00N 51°21' E 002°22'11 8.0
2017-Nov-18 15:39N 51°22' E 002°39'1 7.5
2017-Nov-18 15:30N 51°22' E 002°41'3 6.2
2017-Nov-18 15:00N 51°21' E 002°46'3 6.6
2017-Nov-18 14:31N 51°23' E 002°51'3 6.9
2017-Nov-18 14:01N 51°23' E 002°56'3 6.8
2017-Nov-18 13:31N 51°24' E 003°02'4 7.1
2017-Nov-18 13:01N 51°24' E 003°07'3 6.7
2017-Nov-18 12:31N 51°25' E 003°13'3 6.4
2017-Nov-18 12:01N 51°25' E 003°18'3 5.6
2017-Nov-18 11:31N 51°25' E 003°22'3 6.0
2017-Nov-18 11:00N 51°25' E 003°27'3 6.7
2017-Nov-18 10:31N 51°26' E 003°32'3 5.7
2017-Nov-18 10:01N 51°26' E 003°37'3 6.5
2017-Nov-18 09:31N 51°24' E 003°41'4 8.1
2017-Nov-18 09:01N 51°22' E 003°47'3 5.0
2017-Nov-18 08:30N 51°20' E 003°49'0 0.2
2017-Nov-18 08:00N 51°20' E 003°49'2 4.6
2017-Nov-18 07:30N 51°17' E 003°50'4 7.1
2017-Nov-18 07:01N 51°14' E 003°49'3 6.7
2017-Nov-18 06:30N 51°11' E 003°48'0 0.2
2017-Nov-18 06:00N 51°11' E 003°48'0 0.0
2017-Nov-18 05:29N 51°11' E 003°48'0 0.0
2017-Nov-18 05:00N 51°11' E 003°48'0 0.0
2017-Nov-18 04:29N 51°11' E 003°48'0 0.0
2017-Nov-18 04:00N 51°11' E 003°48'0 0.0
2017-Nov-18 03:29N 51°11' E 003°48'0 0.0
2017-Nov-18 02:59N 51°11' E 003°48'0 0.0
2017-Nov-18 02:30N 51°11' E 003°48'0 0.0
2017-Nov-18 01:59N 51°11' E 003°48'0 0.0
2017-Nov-18 01:30N 51°11' E 003°48'0 0.0
2017-Nov-18 00:59N 51°11' E 003°48'0 0.0
2017-Nov-18 00:30N 51°11' E 003°48'0 0.0
2017-Nov-17 23:59N 51°11' E 003°48'0 0.0
2017-Nov-17 23:29N 51°11' E 003°48'0 0.0
2017-Nov-17 22:59N 51°11' E 003°48'0 0.0
2017-Nov-17 22:29N 51°11' E 003°48'0 0.0
2017-Nov-17 21:59N 51°11' E 003°48'0 0.0
2017-Nov-17 21:29N 51°11' E 003°48'0 0.0
2017-Nov-17 20:59N 51°11' E 003°48'0 0.0
2017-Nov-17 20:29N 51°11' E 003°48'0 0.0
2017-Nov-17 19:59N 51°11' E 003°48'0 0.0
2017-Nov-17 19:29N 51°11' E 003°48'0 0.0
2017-Nov-17 18:59N 51°11' E 003°48'0 0.0
2017-Nov-17 18:29N 51°11' E 003°48'0 0.0
2017-Nov-17 17:57N 51°11' E 003°48'0 0.0
2017-Nov-17 17:30N 51°11' E 003°48'0 0.0
2017-Nov-17 16:59N 51°11' E 003°48'0 0.0
2017-Nov-17 16:29N 51°11' E 003°48'0 0.0
2017-Nov-17 15:59N 51°11' E 003°48'0 0.0
2017-Nov-17 15:29N 51°11' E 003°48'0 0.0
2017-Nov-17 14:59N 51°11' E 003°48'0 0.0
2017-Nov-17 14:29N 51°11' E 003°48'0 0.0
2017-Nov-17 13:57N 51°11' E 003°48'0 0.0
2017-Nov-17 13:26N 51°11' E 003°48'0 0.1
2017-Nov-17 12:59N 51°11' E 003°48'0 0.0
2017-Nov-17 12:29N 51°11' E 003°48'0 0.0
2017-Nov-17 11:59N 51°11' E 003°48'0 0.0
2017-Nov-17 11:29N 51°11' E 003°48'0 0.0
2017-Nov-17 10:59N 51°11' E 003°48'0 0.0
2017-Nov-17 10:29N 51°11' E 003°48'0 0.0
2017-Nov-17 09:59N 51°11' E 003°48'0 0.0
2017-Nov-17 09:29N 51°11' E 003°48'0 0.0
2017-Nov-17 08:59N 51°11' E 003°48'0 0.0
2017-Nov-17 08:29N 51°11' E 003°48'0 0.0
2017-Nov-17 07:59N 51°11' E 003°48'0 0.0
2017-Nov-17 07:29N 51°11' E 003°48'0 0.0
2017-Nov-17 06:59N 51°11' E 003°48'0 0.0
2017-Nov-17 06:29N 51°11' E 003°48'0 0.0
2017-Nov-17 05:59N 51°11' E 003°48'0 0.0
2017-Nov-17 05:29N 51°11' E 003°48'0 0.0
2017-Nov-17 04:59N 51°11' E 003°48'0 0.0
2017-Nov-17 04:29N 51°11' E 003°48'0 0.0
2017-Nov-17 04:00N 51°11' E 003°48'0 0.0
2017-Nov-17 03:29N 51°11' E 003°48'0 0.0
2017-Nov-17 03:00N 51°11' E 003°48'0 0.0
2017-Nov-17 02:29N 51°11' E 003°48'0 0.0
2017-Nov-17 01:59N 51°11' E 003°48'0 0.0
2017-Nov-17 01:29N 51°11' E 003°48'0 0.0
2017-Nov-17 00:59N 51°11' E 003°48'0 0.0
2017-Nov-17 00:30N 51°11' E 003°48'0 0.0
2017-Nov-16 23:59N 51°11' E 003°48'0 0.0
2017-Nov-16 23:29N 51°11' E 003°48'0 0.0
2017-Nov-16 22:59N 51°11' E 003°48'0 0.0
2017-Nov-16 22:29N 51°11' E 003°48'0 0.0
2017-Nov-16 21:59N 51°11' E 003°48'0 0.0
2017-Nov-16 21:29N 51°11' E 003°48'0 0.0
2017-Nov-16 20:59N 51°11' E 003°48'0 0.0
2017-Nov-16 20:29N 51°11' E 003°48'0 0.0
2017-Nov-16 19:59N 51°11' E 003°48'0 0.0
2017-Nov-16 19:29N 51°11' E 003°48'0 0.0
2017-Nov-16 18:59N 51°11' E 003°48'0 0.0
2017-Nov-16 18:29N 51°11' E 003°48'0 0.0
2017-Nov-16 18:00N 51°11' E 003°48'0 0.0
2017-Nov-16 17:29N 51°11' E 003°48'0 0.0
2017-Nov-16 16:59N 51°11' E 003°48'0 0.0
2017-Nov-16 16:29N 51°11' E 003°48'0 0.0
2017-Nov-16 15:59N 51°11' E 003°48'0 0.0
2017-Nov-16 15:30N 51°11' E 003°48'0 0.0
2017-Nov-16 14:59N 51°11' E 003°48'0 0.0
2017-Nov-16 14:29N 51°11' E 003°48'0 0.0
2017-Nov-16 13:59N 51°11' E 003°48'0 0.0
2017-Nov-16 13:30N 51°11' E 003°48'0 0.0
2017-Nov-16 12:59N 51°11' E 003°48'0 0.0
2017-Nov-16 12:30N 51°11' E 003°48'0 0.4
2017-Nov-16 12:00N 51°10' E 003°48'1 2.2
2017-Nov-16 11:29N 51°09' E 003°47'0 0.0
2017-Nov-16 10:59N 51°09' E 003°47'0 0.0
2017-Nov-16 10:29N 51°09' E 003°47'0 0.0
2017-Nov-16 09:59N 51°09' E 003°47'0 0.0
2017-Nov-16 09:29N 51°09' E 003°47'0 0.0
2017-Nov-16 08:59N 51°09' E 003°47'0 0.0
2017-Nov-16 08:29N 51°09' E 003°47'0 0.0
2017-Nov-16 07:59N 51°09' E 003°47'0 0.0
2017-Nov-16 07:29N 51°09' E 003°47'0 0.0
2017-Nov-16 06:59N 51°09' E 003°47'0 0.0
2017-Nov-16 06:29N 51°09' E 003°47'0 0.0
2017-Nov-16 05:59N 51°09' E 003°47'0 0.0
2017-Nov-16 05:29N 51°09' E 003°47'0 0.0
2017-Nov-16 04:59N 51°09' E 003°47'0 0.0
2017-Nov-16 04:29N 51°09' E 003°47'0 0.0
2017-Nov-16 03:59N 51°09' E 003°47'0 0.0
2017-Nov-16 03:29N 51°09' E 003°47'0 0.0
2017-Nov-16 02:59N 51°09' E 003°47'0 0.0
2017-Nov-16 02:29N 51°09' E 003°47'0 0.0
2017-Nov-16 01:59N 51°09' E 003°47'0 0.0
2017-Nov-16 01:29N 51°09' E 003°47'0 0.0
2017-Nov-16 00:59N 51°09' E 003°47'0 0.0
2017-Nov-16 00:29N 51°09' E 003°47'0 0.0
2017-Nov-15 23:59N 51°09' E 003°47'0 0.0
2017-Nov-15 23:29N 51°09' E 003°47'0 0.0
2017-Nov-15 22:59N 51°09' E 003°47'0 0.0
2017-Nov-15 22:29N 51°09' E 003°47'0 0.0
2017-Nov-15 21:59N 51°09' E 003°47'0 0.0
2017-Nov-15 21:29N 51°09' E 003°47'0 0.0
2017-Nov-15 20:59N 51°09' E 003°47'0 0.0
2017-Nov-15 20:29N 51°09' E 003°47'0 0.0
2017-Nov-15 19:59N 51°09' E 003°47'0 0.0
2017-Nov-15 19:29N 51°09' E 003°47'0 0.0
2017-Nov-15 18:59N 51°09' E 003°47'0 0.0
2017-Nov-15 18:29N 51°09' E 003°47'0 0.0
2017-Nov-15 17:59N 51°09' E 003°47'0 0.0
2017-Nov-15 17:29N 51°09' E 003°47'0 0.0
2017-Nov-15 16:59N 51°09' E 003°47'0 0.0
2017-Nov-15 16:29N 51°09' E 003°47'0 0.0
2017-Nov-15 15:59N 51°09' E 003°47'0 0.0
2017-Nov-15 15:29N 51°09' E 003°47'0 0.0
2017-Nov-15 14:59N 51°09' E 003°47'0 0.0
2017-Nov-15 14:29N 51°09' E 003°47'0 0.0
2017-Nov-15 13:59N 51°09' E 003°47'0 0.0
2017-Nov-15 13:29N 51°09' E 003°47'0 0.0
2017-Nov-15 12:59N 51°09' E 003°47'0 0.0
2017-Nov-15 12:29N 51°09' E 003°47'0 0.0
2017-Nov-15 11:59N 51°09' E 003°47'0 0.0
2017-Nov-15 11:29N 51°09' E 003°47'0 0.0
2017-Nov-15 10:59N 51°09' E 003°47'0 0.0
2017-Nov-15 10:29N 51°09' E 003°47'0 0.0
2017-Nov-15 09:59N 51°09' E 003°47'0 0.0
2017-Nov-15 09:29N 51°09' E 003°47'0 0.0
2017-Nov-15 08:59N 51°09' E 003°47'0 0.0
2017-Nov-15 08:29N 51°09' E 003°47'0 0.0
2017-Nov-15 07:59N 51°09' E 003°47'0 0.0
2017-Nov-15 07:29N 51°09' E 003°47'0 0.0
2017-Nov-15 06:59N 51°09' E 003°47'0 0.0
2017-Nov-15 06:29N 51°09' E 003°47'0 0.0
2017-Nov-15 05:59N 51°09' E 003°47'0 0.0
2017-Nov-15 05:29N 51°09' E 003°47'0 0.0
2017-Nov-15 04:59N 51°09' E 003°47'0 0.0
2017-Nov-15 04:29N 51°09' E 003°47'0 0.0
2017-Nov-15 03:56N 51°09' E 003°47'0 0.0
2017-Nov-15 03:29N 51°09' E 003°47'0 0.0
2017-Nov-15 02:59N 51°09' E 003°47'0 0.0
2017-Nov-15 02:29N 51°09' E 003°47'0 0.0
2017-Nov-15 01:59N 51°09' E 003°47'0 0.0
2017-Nov-15 01:29N 51°09' E 003°47'0 0.0
2017-Nov-15 00:59N 51°09' E 003°47'0 0.0
2017-Nov-15 00:29N 51°09' E 003°47'0 0.0
2017-Nov-14 23:59N 51°09' E 003°47'0 0.0
2017-Nov-14 23:29N 51°09' E 003°47'0 0.0
2017-Nov-14 22:59N 51°09' E 003°47'0 0.0
2017-Nov-14 22:29N 51°09' E 003°47'0 0.0
2017-Nov-14 21:59N 51°09' E 003°47'0 0.0
2017-Nov-14 21:29N 51°09' E 003°47'0 0.0
2017-Nov-14 20:59N 51°09' E 003°47'0 0.0
2017-Nov-14 20:29N 51°09' E 003°47'0 0.0
2017-Nov-14 19:59N 51°09' E 003°47'0 0.0
2017-Nov-14 19:29N 51°09' E 003°47'0 0.0
2017-Nov-14 18:59N 51°09' E 003°47'0 0.0
2017-Nov-14 18:29N 51°09' E 003°47'0 0.0
2017-Nov-14 17:59N 51°09' E 003°47'0 0.0
2017-Nov-14 17:29N 51°09' E 003°47'0 0.0
2017-Nov-14 16:59N 51°09' E 003°47'0 0.0
2017-Nov-14 16:29N 51°09' E 003°47'0 0.0
2017-Nov-14 15:59N 51°09' E 003°47'0 0.0
2017-Nov-14 15:29N 51°09' E 003°47'0 0.0
2017-Nov-14 14:59N 51°09' E 003°47'0 0.0
2017-Nov-14 14:29N 51°09' E 003°47'0 0.0
2017-Nov-14 13:59N 51°09' E 003°47'0 0.0
2017-Nov-14 13:29N 51°09' E 003°47'0 0.0
2017-Nov-14 12:56N 51°09' E 003°47'0 0.0
2017-Nov-14 12:29N 51°09' E 003°47'0 0.0
2017-Nov-14 11:59N 51°09' E 003°47'0 0.0
2017-Nov-14 11:29N 51°09' E 003°47'0 0.0
2017-Nov-14 10:59N 51°09' E 003°47'0 0.0
2017-Nov-14 10:29N 51°09' E 003°47'0 0.0
2017-Nov-14 09:59N 51°09' E 003°47'0 0.0
2017-Nov-14 09:29N 51°09' E 003°47'0 0.0
2017-Nov-14 08:59N 51°09' E 003°47'0 0.0
2017-Nov-14 08:29N 51°09' E 003°47'0 0.0
2017-Nov-14 07:59N 51°09' E 003°47'0 0.0
2017-Nov-14 07:26N 51°09' E 003°47'0 0.0
2017-Nov-14 06:59N 51°09' E 003°47'0 0.0
2017-Nov-14 06:29N 51°09' E 003°47'0 0.0
2017-Nov-14 05:59N 51°09' E 003°47'0 0.0
2017-Nov-14 05:29N 51°09' E 003°47'0 0.0
2017-Nov-14 04:59N 51°09' E 003°47'0 0.0
2017-Nov-14 04:29N 51°09' E 003°47'0 0.0
2017-Nov-14 03:59N 51°09' E 003°47'0 0.0
2017-Nov-14 03:29N 51°09' E 003°47'0 0.0
2017-Nov-14 02:59N 51°09' E 003°47'0 0.0
2017-Nov-14 02:29N 51°09' E 003°47'0 0.0
2017-Nov-14 01:59N 51°09' E 003°47'0 0.0
2017-Nov-14 01:29N 51°09' E 003°47'0 0.0
2017-Nov-14 00:59N 51°09' E 003°47'0 0.0
2017-Nov-14 00:29N 51°09' E 003°47'0 0.0
2017-Nov-13 23:59N 51°09' E 003°47'0 0.0
2017-Nov-13 23:29N 51°09' E 003°47'0 0.0
2017-Nov-13 22:59N 51°09' E 003°47'0 0.0
2017-Nov-13 22:29N 51°09' E 003°47'0 0.0
2017-Nov-13 21:59N 51°09' E 003°47'0 0.0
2017-Nov-13 01:59N 51°09' E 003°47'0 0.0
2017-Nov-13 01:29N 51°09' E 003°47'0 0.0
2017-Nov-13 00:59N 51°09' E 003°47'0 0.0
2017-Nov-13 00:29N 51°09' E 003°47'0 0.0
2017-Nov-12 23:59N 51°09' E 003°47'0 0.0
2017-Nov-12 23:29N 51°09' E 003°47'0 0.0
2017-Nov-12 22:59N 51°09' E 003°47'0 0.0
2017-Nov-12 22:29N 51°09' E 003°47'0 0.0
2017-Nov-12 21:59N 51°09' E 003°47'0 0.0
2017-Nov-12 21:29N 51°09' E 003°47'0 0.0
2017-Nov-12 20:59N 51°09' E 003°47'0 0.0
2017-Nov-12 20:29N 51°09' E 003°47'0 0.0
2017-Nov-12 19:59N 51°09' E 003°47'0 0.0
2017-Nov-12 19:29N 51°09' E 003°47'0 0.0
2017-Nov-12 18:59N 51°09' E 003°47'0 0.0
2017-Nov-12 18:29N 51°09' E 003°47'0 0.0
2017-Nov-12 17:59N 51°09' E 003°47'0 0.0
2017-Nov-12 17:29N 51°09' E 003°47'0 0.0
2017-Nov-12 16:59N 51°09' E 003°47'0 0.0
2017-Nov-12 16:29N 51°09' E 003°47'0 0.0
2017-Nov-12 15:59N 51°09' E 003°47'0 0.0
2017-Nov-12 15:29N 51°09' E 003°47'0 0.0
2017-Nov-12 14:59N 51°09' E 003°47'0 0.0
2017-Nov-12 14:31N 51°09' E 003°47'0 0.0
2017-Nov-12 14:01N 51°09' E 003°47'1 2.4
2017-Nov-12 13:30N 51°10' E 003°48'3 6.7
2017-Nov-12 13:00N 51°14' E 003°48'3 6.3
2017-Nov-12 12:30N 51°17' E 003°50'3 6.4
2017-Nov-12 12:00N 51°20' E 003°49'0 0.0
2017-Nov-12 11:30N 51°20' E 003°49'2 3.5
2017-Nov-12 11:00N 51°21' E 003°47'4 8.7
2017-Nov-12 10:30N 51°24' E 003°42'4 8.6
2017-Nov-12 10:00N 51°26' E 003°36'4 7.5
2017-Nov-12 09:30N 51°28' E 003°31'4 8.4
2017-Nov-12 09:00N 51°31' E 003°26'5 9.1
2017-Nov-12 08:30N 51°35' E 003°23'510.1
2017-Nov-12 08:00N 51°40' E 003°19'510.0
2017-Nov-12 07:28N 51°44' E 003°14'3 6.5
2017-Nov-12 07:00N 51°47' E 003°16'1 2.7
2017-Nov-12 06:27N 51°48' E 003°17'1 3.1
2017-Nov-12 05:59N 51°50' E 003°17'1 2.7
2017-Nov-12 05:30N 51°51' E 003°18'27 6.6
2017-Nov-12 01:26N 52°16' E 003°33'3 7.9
2017-Nov-12 01:00N 52°18' E 003°38'4 8.1
2017-Nov-12 00:31N 52°21' E 003°43'4 7.7
2017-Nov-11 23:59N 52°24' E 003°47'4 7.8
2017-Nov-11 23:30N 52°27' E 003°50'4 8.2
2017-Nov-11 23:00N 52°31' E 003°52'4 8.0
2017-Nov-11 22:30N 52°31' E 003°58'4 7.2
2017-Nov-11 22:00N 52°32' E 004°04'4 7.3
2017-Nov-11 21:30N 52°31' E 004°10'3 6.9
2017-Nov-11 21:00N 52°31' E 004°16'3 6.8
2017-Nov-11 20:31N 52°30' E 004°21'3 6.5
2017-Nov-11 20:01N 52°29' E 004°26'3 6.8
2017-Nov-11 19:30N 52°28' E 004°32'3 5.3
2017-Nov-11 19:00N 52°28' E 004°36'1 1.4
2017-Nov-11 18:31N 52°28' E 004°37'4 7.6
2017-Nov-11 18:01N 52°26' E 004°43'5 9.8
2017-Nov-11 17:31N 52°25' E 004°51'1 2.2
2017-Nov-11 17:00N 52°24' E 004°52'0 0.0
2017-Nov-11 16:30N 52°24' E 004°52'0 0.0
2017-Nov-11 16:00N 52°24' E 004°52'0 0.0
2017-Nov-11 15:30N 52°24' E 004°52'0 0.0
2017-Nov-11 15:00N 52°24' E 004°52'0 0.0
2017-Nov-11 14:30N 52°24' E 004°52'0 0.0
2017-Nov-11 14:00N 52°24' E 004°52'0 0.0
2017-Nov-11 13:30N 52°24' E 004°52'0 0.0
2017-Nov-11 13:00N 52°24' E 004°52'0 0.0
2017-Nov-11 12:30N 52°24' E 004°52'0 0.0
2017-Nov-11 12:00N 52°24' E 004°52'0 0.0
2017-Nov-11 11:30N 52°24' E 004°52'0 0.0
2017-Nov-11 11:00N 52°24' E 004°52'0 0.0
2017-Nov-11 10:30N 52°24' E 004°52'0 0.0
2017-Nov-11 10:00N 52°24' E 004°52'0 0.0
2017-Nov-11 09:30N 52°24' E 004°52'0 0.0
2017-Nov-11 09:00N 52°24' E 004°52'0 0.0
2017-Nov-11 08:30N 52°24' E 004°52'0 0.0
2017-Nov-11 08:00N 52°24' E 004°52'0 0.0
2017-Nov-11 07:30N 52°24' E 004°52'0 0.0
2017-Nov-11 07:00N 52°24' E 004°52'0 0.0
2017-Nov-11 06:30N 52°24' E 004°52'0 0.0
2017-Nov-11 06:00N 52°24' E 004°52'0 0.0
2017-Nov-11 05:30N 52°24' E 004°52'0 0.0
2017-Nov-11 05:00N 52°24' E 004°52'0 0.0
2017-Nov-11 04:30N 52°24' E 004°52'0 0.0
2017-Nov-11 04:00N 52°24' E 004°52'0 0.0
2017-Nov-11 03:30N 52°24' E 004°52'0 0.0
2017-Nov-11 03:00N 52°24' E 004°52'0 0.0
2017-Nov-11 02:27N 52°24' E 004°52'0 0.0
2017-Nov-11 02:00N 52°24' E 004°52'0 0.0
2017-Nov-11 01:30N 52°24' E 004°52'0 0.0
2017-Nov-11 01:00N 52°24' E 004°52'0 0.0
2017-Nov-11 00:30N 52°24' E 004°52'0 0.0
2017-Nov-11 00:00N 52°24' E 004°52'0 0.0
2017-Nov-10 23:30N 52°24' E 004°52'0 0.0
2017-Nov-10 23:00N 52°24' E 004°52'0 0.0
2017-Nov-10 22:30N 52°24' E 004°52'0 0.0
2017-Nov-10 21:54N 52°24' E 004°52'0 0.0
2017-Nov-10 21:30N 52°24' E 004°52'0 0.0
2017-Nov-10 21:00N 52°24' E 004°52'0 0.0
2017-Nov-10 20:30N 52°24' E 004°52'0 0.0
2017-Nov-10 20:00N 52°24' E 004°52'0 0.0
2017-Nov-10 19:30N 52°24' E 004°52'0 0.0
2017-Nov-10 19:00N 52°24' E 004°52'0 0.0
2017-Nov-10 18:30N 52°24' E 004°52'0 0.0
2017-Nov-10 18:00N 52°24' E 004°52'0 0.0
2017-Nov-10 17:30N 52°24' E 004°52'0 0.0
2017-Nov-10 17:00N 52°24' E 004°52'0 0.0
2017-Nov-10 16:30N 52°24' E 004°52'0 0.0
2017-Nov-10 16:00N 52°24' E 004°52'0 0.0
2017-Nov-10 15:30N 52°24' E 004°52'0 0.0
2017-Nov-10 15:00N 52°24' E 004°52'0 0.0
2017-Nov-10 14:30N 52°24' E 004°52'0 0.0
2017-Nov-10 14:00N 52°24' E 004°52'0 0.0
2017-Nov-10 13:30N 52°24' E 004°52'0 0.0
2017-Nov-10 12:57N 52°24' E 004°52'0 0.0
2017-Nov-10 12:27N 52°24' E 004°52'0 0.0
2017-Nov-10 12:00N 52°24' E 004°52'0 0.0
2017-Nov-10 11:30N 52°24' E 004°52'0 0.3
2017-Nov-10 11:01N 52°25' E 004°52'2 4.3
2017-Nov-10 10:31N 52°25' E 004°49'4 8.2
2017-Nov-10 10:00N 52°26' E 004°42'4 7.2
2017-Nov-10 09:30N 52°28' E 004°37'0 0.7
2017-Nov-10 09:01N 52°28' E 004°36'2 4.7
2017-Nov-10 08:30N 52°28' E 004°33'4 8.1
2017-Nov-10 08:00N 52°29' E 004°26'2 3.2
2017-Nov-10 07:30N 52°29' E 004°23'1 1.7
2017-Nov-10 07:00N 52°28' E 004°22'3 5.1
2017-Nov-10 06:30N 52°28' E 004°18'3 6.1
2017-Nov-10 06:00N 52°29' E 004°13'3 6.0
2017-Nov-10 05:30N 52°29' E 004°08'3 6.1
2017-Nov-10 04:58N 52°28' E 004°03'3 6.1
2017-Nov-10 04:30N 52°27' E 003°58'3 6.3
2017-Nov-10 04:00N 52°27' E 003°53'61 7.5
2017-Nov-09 19:54N 51°47' E 002°38'4 9.5
2017-Nov-09 19:25N 51°44' E 002°33'4 9.7
2017-Nov-09 18:59N 51°40' E 002°29'610.0
2017-Nov-09 18:25N 51°36' E 002°23'410.4
2017-Nov-09 18:00N 51°33' E 002°18'510.4
2017-Nov-09 17:30N 51°29' E 002°13'510.3
2017-Nov-09 17:00N 51°25' E 002°08'510.0
2017-Nov-09 16:30N 51°20' E 002°07'510.2
2017-Nov-09 16:00N 51°15' E 002°05'510.7
2017-Nov-09 15:30N 51°12' E 001°58'510.9
2017-Nov-09 15:00N 51°09' E 001°51'611.2
2017-Nov-09 14:30N 51°04' E 001°45'611.2
2017-Nov-09 14:00N 51°00' E 001°39'510.7
2017-Nov-09 13:30N 50°56' E 001°33'  

Dump ship's entire track history